This is the latest recevied weather packets stored in our database for station/object KG7BDA. If no packets are shown the sender has not sent any weather packets the latest 10 day(s).
| Time | Temp. | Humidity | Pressure | Rain* | Wind** | Luminosity | Snow |
|---|---|---|---|---|---|---|---|
| 1777447632 | 10° C | 50% | 1019.4 hPa | 0 mm | - | - | - |
| 1777446912 | 10° C | 50% | 1019.3 hPa | 0 mm | - | - | - |
| 1777446553 | 10° C | 49% | 1019.2 hPa | 0 mm | - | - | - |
| 1777445473 | 10.56° C | 48% | 1019.2 hPa | 0 mm | - | - | - |
| 1777445112 | 10° C | 50% | 1019.2 hPa | 0 mm | - | - | - |
| 1777444752 | 10.56° C | 50% | 1019.3 hPa | 0 mm | - | - | - |
| 1777444392 | 10° C | 51% | 1019.4 hPa | 0 mm | - | - | - |
| 1777444034 | 10° C | 51% | 1019.3 hPa | 0 mm | - | - | - |
| 1777443671 | 10° C | 50% | 1019.3 hPa | 0 mm | - | - | - |
| 1777443311 | 10° C | 51% | 1019.4 hPa | 0 mm | - | - | - |
| 1777442952 | 10° C | 52% | 1019.3 hPa | 0 mm | - | - | - |
| 1777442592 | 9.44° C | 53% | 1019.3 hPa | 0 mm | - | - | - |
| 1777442232 | 8.89° C | 56% | 1019.3 hPa | 0 mm | - | - | - |
| 1777441872 | 8.89° C | 57% | 1019.3 hPa | 0 mm | - | - | - |
| 1777441512 | 8.33° C | 59% | 1019.3 hPa | 0 mm | - | - | - |
| 1777441152 | 7.22° C | 63% | 1019.2 hPa | 0 mm | - | - | - |
| 1777440792 | 6.67° C | 66% | 1019.2 hPa | 0 mm | - | - | - |
| 1777440432 | 6.67° C | 65% | 1019.2 hPa | 0 mm | - | - | - |
| 1777440072 | 6.67° C | 65% | 1019.2 hPa | 0 mm | - | - | - |
| 1777439713 | 6.67° C | 64% | 1019.2 hPa | 0 mm | - | - | - |
| 1777439353 | 6.67° C | 64% | 1019.1 hPa | 0 mm | - | - | - |
| 1777438993 | 7.22° C | 63% | 1019.1 hPa | 0 mm | - | - | - |
| 1777438632 | 7.22° C | 62% | 1019.2 hPa | 0 mm | - | - | - |
| 1777438273 | 7.22° C | 64% | 1019.1 hPa | 0 mm | - | - | - |
| 1777437912 | 6.67° C | 63% | 1019.2 hPa | 0 mm | - | - | - |
* Rain latest hour (hover to see other rain measurements)
** Current wind speed in m/s (hover to see current wind gust speed)